Time;durP1;ratioP1;P1;durP2;ratioP2;P2;SDS_P1;SDS_P2;PMS_P1;PMS_P2;Temp;Humidity;BMP_temperature;BMP_pressure;BME280_temperature;BME280_humidity;BME280_pressure;Samples;Min_cycle;Max_cycle;Signal;HPM_P1;HPM_P2
2023/12/17 10:58:55;;;;;;;9.07;2.83;;;8.90;99.90;;;;;;4957909;24;20254;-96
2023/12/17 11:08:00;;;;;;;13.75;2.00;;;8.90;99.90;;;;;;4904258;24;20681;-96
2023/12/17 11:10:24;;;;;;;8.88;1.85;;;8.80;99.90;;;;;;4956030;23;20217;-96
2023/12/17 11:12:38;;;;;;;;;;;;;;;;;;;;;
2023/12/17 11:22:06;;;;;;;;;;;;;;;;;;;;;
2023/12/17 11:25:52;;;;;;;7.05;2.15;;;9.30;99.90;;;;;;4864911;24;20191;-96
2023/12/17 11:28:57;;;;;;;5.53;1.65;;;9.40;99.90;;;;;;4768697;24;20170;-96
2023/12/17 11:32:53;;;;;;;;;;;;;;;;;;;;;
2023/12/17 11:35:40;;;;;;;6.60;2.58;;;9.30;99.90;;;;;;4703366;24;20190;-95
2023/12/17 11:39:04;;;;;;;8.02;1.88;;;9.20;99.90;;;;;;4760767;24;20232;-96
2023/12/17 11:41:38;;;;;;;6.43;2.28;;;9.20;99.90;;;;;;4833919;24;20172;-96
2023/12/17 11:44:52;;;;;;;4.50;1.85;;;9.30;99.90;;;;;;4812625;24;20245;-96
2023/12/17 12:19:10;;;;;;;2.80;1.02;;;9.90;99.90;;;;;;4987336;23;20201;-94
2023/12/17 12:22:16;;;;;;;11.15;2.15;;;9.90;99.90;;;;;;4982998;23;20170;-95
2023/12/17 12:24:40;;;;;;;4.03;1.65;;;9.80;99.90;;;;;;4994021;23;20219;-96
2023/12/17 12:27:45;;;;;;;6.55;2.35;;;9.80;99.90;;;;;;4985813;23;20140;-95
2023/12/17 12:30:32;;;;;;;;;;;;;;;;;;;;;
2023/12/17 12:32:56;;;;;;;8.40;2.92;;;10.20;99.90;;;;;;4969648;24;20164;-95
2023/12/17 12:35:35;;;;;;;9.63;2.60;;;10.20;99.90;;;;;;4993302;23;20160;-96
2023/12/17 12:39:01;;;;;;;6.90;2.38;;;10.30;99.90;;;;;;4988121;23;20203;-96
2023/12/17 12:42:05;;;;;;;3.05;1.50;;;10.10;99.90;;;;;;4945508;24;20157;-96
2023/12/17 12:44:35;;;;;;;4.63;1.40;;;10.10;99.90;;;;;;4877163;24;20152;-96
2023/12/17 12:47:38;;;;;;;;;;;;;;;;;;;;;
2023/12/17 12:50:17;;;;;;;5.78;1.70;;;10.40;99.90;;;;;;5040563;23;20202;-96
2023/12/17 12:52:52;;;;;;;4.72;1.58;;;10.30;99.90;;;;;;4993541;23;20160;-96
2023/12/17 12:57:23;;;;;;;;;;;;;;;;;;;;;
2023/12/17 13:00:24;;;;;;;8.82;2.03;;;10.20;99.90;;;;;;5067500;23;20166;-93
2023/12/17 13:02:38;;;;;;;5.45;1.90;;;10.10;99.90;;;;;;5040127;23;20143;-96
2023/12/17 13:16:10;;;;;;;;;;;;;;;;;;;;;
2023/12/17 13:19:24;;;;;;;9.98;1.60;;;9.80;99.90;;;;;;4971264;23;20228;-96
2023/12/17 13:21:49;;;;;;;5.95;1.38;;;10.00;99.90;;;;;;4970724;23;20215;-96
2023/12/17 13:24:47;;;;;;;6.25;1.00;;;9.90;99.90;;;;;;5029479;23;20139;-96
2023/12/17 13:27:44;;;;;;;2.50;0.90;;;10.00;99.90;;;;;;5014416;23;20159;-96
2023/12/17 13:31:30;;;;;;;4.60;1.33;;;10.10;99.90;;;;;;5052700;23;20163;-96
2023/12/17 13:34:19;;;;;;;3.38;1.55;;;9.90;99.90;;;;;;4969236;23;20165;-96
2023/12/17 13:37:09;;;;;;;5.57;1.77;;;9.80;99.90;;;;;;5065427;23;20162;-96
2023/12/17 13:40:37;;;;;;;;;;;;;;;;;;;;;
2023/12/17 14:03:32;;;;;;;9.27;2.15;;;9.60;99.90;;;;;;4856366;24;20155;-96
2023/12/17 14:10:13;;;;;;;2.03;1.00;;;9.50;99.90;;;;;;4794411;24;20166;-96
2023/12/17 14:12:23;;;;;;;5.70;1.40;;;9.40;99.90;;;;;;4767598;24;20170;-96
2023/12/17 14:15:23;;;;;;;5.00;1.70;;;9.40;99.90;;;;;;4793642;24;20256;-96
2023/12/17 14:19:00;;;;;;;;;;;;;;;;;;;;;
2023/12/17 14:24:58;;;;;;;1.63;0.90;;;9.20;99.90;;;;;;4707265;25;20172;-96
2023/12/17 14:27:54;;;;;;;4.45;1.17;;;9.10;99.90;;;;;;4904043;23;20167;-96
2023/12/17 14:30:39;;;;;;;;;;;;;;;;;;;;;
2023/12/17 14:33:08;;;;;;;6.57;1.90;;;9.00;99.90;;;;;;4951022;23;20157;-96
2023/12/17 14:35:46;;;;;;;6.05;1.23;;;8.90;99.90;;;;;;4990361;23;20192;-96
2023/12/17 14:39:20;;;;;;;2.90;1.40;;;8.90;99.90;;;;;;5066397;23;20261;-96
2023/12/17 14:41:35;;;;;;;5.00;1.98;;;8.80;99.90;;;;;;4970520;23;20141;-96
2023/12/17 14:44:35;;;;;;;2.63;1.42;;;8.90;99.90;;;;;;4999426;23;20171;-96
2023/12/17 14:48:54;;;;;;;9.65;1.38;;;8.80;99.90;;;;;;5053495;23;20240;-96
2023/12/17 14:52:03;;;;;;;6.07;2.30;;;8.70;99.90;;;;;;5041659;23;20163;-96
2023/12/17 14:57:50;;;;;;;;;;;;;;;;;;;;;
2023/12/17 15:00:05;;;;;;;2.13;0.80;;;8.40;99.90;;;;;;4988751;23;20172;-95
2023/12/17 15:02:06;;;;;;;5.70;2.15;;;8.30;99.90;;;;;;4993188;23;20153;-94
2023/12/17 15:05:32;;;;;;;3.95;1.90;;;8.20;99.90;;;;;;5015876;23;20156;-95
2023/12/17 15:08:18;;;;;;;;;;;;;;;;;;;;;
2023/12/17 15:11:35;;;;;;;6.38;2.00;;;8.10;99.90;;;;;;4883845;24;20163;-95
2023/12/17 15:14:15;;;;;;;3.38;1.58;;;8.10;99.90;;;;;;5034939;23;20239;-95
2023/12/17 15:16:38;;;;;;;3.17;2.00;;;8.00;99.90;;;;;;4993227;23;20176;-96
2023/12/17 15:19:15;;;;;;;;;;;;;;;;;;;;;
2023/12/17 15:28:26;;;;;;;2.00;1.23;;;7.90;99.90;;;;;;4968579;24;20161;-95
2023/12/17 15:35:46;;;;;;;;;;;;;;;;;;;;;
2023/12/17 15:45:34;;;;;;;2.38;1.02;;;7.70;99.90;;;;;;4833849;24;20196;-96
2023/12/17 15:51:44;;;;;;;;;;;;;;;;;;;;;
2023/12/17 15:57:50;;;;;;;3.22;1.35;;;7.40;99.90;;;;;;4833282;24;20240;-96
